createdAt,value
2018-11-05T00:00:22.437Z,14.37
2018-11-05T00:02:51.627Z,14.30
2018-11-05T00:05:19.603Z,12.43
2018-11-05T00:07:47.200Z,12.87
2018-11-05T00:10:15.041Z,13.73
2018-11-05T00:12:42.662Z,14.30
2018-11-05T00:15:10.207Z,13.87
2018-11-05T00:17:38.262Z,12.57
2018-11-05T00:20:07.376Z,14.27
2018-11-05T00:22:34.961Z,13.80
2018-11-05T00:25:03.944Z,13.47
2018-11-05T00:27:31.509Z,13.63
2018-11-05T00:29:59.156Z,13.60
2018-11-05T00:32:27.114Z,12.70
2018-11-05T00:34:54.894Z,13.30
2018-11-05T00:37:22.448Z,13.67
2018-11-05T00:39:49.975Z,14.80
2018-11-05T00:42:17.780Z,13.37
2018-11-05T00:44:45.287Z,13.47
2018-11-05T00:47:12.895Z,13.63
2018-11-05T00:49:40.541Z,14.27
2018-11-05T00:52:08.094Z,13.57
2018-11-05T00:54:35.664Z,14.10
2018-11-05T00:57:03.536Z,13.50
2018-11-05T00:59:31.082Z,13.67
2018-11-05T01:01:58.693Z,13.87
2018-11-05T01:04:26.400Z,13.03
2018-11-05T01:06:53.983Z,12.97
2018-11-05T01:09:21.509Z,12.83
2018-11-05T01:11:49.113Z,13.27
2018-11-05T01:14:16.628Z,12.60
2018-11-05T01:16:44.169Z,13.57
2018-11-05T01:19:12.057Z,14.03
2018-11-05T01:21:39.566Z,13.17
2018-11-05T01:24:07.203Z,14.37
2018-11-05T01:26:35.147Z,13.73
2018-11-05T01:29:02.772Z,13.57
2018-11-05T01:31:30.337Z,12.90
2018-11-05T01:33:58.010Z,13.80
2018-11-05T01:36:25.577Z,13.83
2018-11-05T01:38:53.129Z,14.23
2018-11-05T01:41:20.849Z,14.10
2018-11-05T01:43:48.541Z,13.63
2018-11-05T01:46:16.432Z,13.67
2018-11-05T01:48:44.030Z,13.27
2018-11-05T01:51:11.664Z,14.17
2018-11-05T01:53:39.562Z,13.30
2018-11-05T01:56:07.181Z,13.93
2018-11-05T01:58:34.969Z,13.90
2018-11-05T02:01:02.489Z,13.27
2018-11-05T02:03:30.028Z,14.03
2018-11-05T02:05:58.597Z,14.67
2018-11-05T02:08:26.208Z,15.10
2018-11-05T02:10:53.813Z,13.80
2018-11-05T02:13:21.682Z,14.53
2018-11-05T02:15:49.231Z,13.97
2018-11-05T02:18:16.811Z,14.27
2018-11-05T02:20:44.634Z,14.20
2018-11-05T02:23:12.877Z,15.50
2018-11-05T02:25:40.465Z,14.10
2018-11-05T02:28:08.009Z,14.73
2018-11-05T02:30:35.882Z,13.87
2018-11-05T02:33:03.265Z,12.60
2018-11-05T02:35:30.849Z,13.93
2018-11-05T02:37:58.595Z,14.30
2018-11-05T02:40:26.338Z,13.63
2018-11-05T02:42:53.886Z,13.33
2018-11-05T02:45:21.694Z,15.50
2018-11-05T02:47:49.285Z,13.53
2018-11-05T02:50:16.804Z,13.57
2018-11-05T02:52:45.285Z,14.40
2018-11-05T02:55:13.590Z,14.77
2018-11-05T02:57:41.758Z,14.37
2018-11-05T03:00:12.436Z,14.10
2018-11-05T03:02:40.202Z,13.73
2018-11-05T03:05:10.875Z,13.53
2018-11-05T03:07:38.406Z,14.40
2018-11-05T03:10:07.147Z,13.67
2018-11-05T03:12:34.700Z,14.13
2018-11-05T03:15:02.359Z,14.07
2018-11-05T03:17:30.461Z,13.90
2018-11-05T03:19:58.002Z,14.10
2018-11-05T03:22:25.564Z,13.73
2018-11-05T03:24:53.362Z,14.03
2018-11-05T03:27:21.447Z,14.63
2018-11-05T03:29:49.017Z,14.13
2018-11-05T03:32:16.659Z,14.03
2018-11-05T03:34:44.949Z,13.50
2018-11-05T03:37:12.486Z,13.60
2018-11-05T03:39:40.058Z,13.80
2018-11-05T03:42:08.173Z,14.20
2018-11-05T03:44:35.755Z,12.97
2018-11-05T03:47:03.336Z,13.13
2018-11-05T03:49:31.157Z,13.37
2018-11-05T03:51:58.673Z,13.07
2018-11-05T03:54:26.218Z,13.13
2018-11-05T03:56:53.937Z,13.17
2018-11-05T03:59:21.450Z,14.73
2018-11-05T04:01:49.393Z,13.77
2018-11-05T04:04:16.914Z,13.07
2018-11-05T04:06:52.395Z,13.77
2018-11-05T04:09:19.990Z,12.30
2018-11-05T04:11:47.588Z,13.57
2018-11-05T04:14:15.720Z,12.10
2018-11-05T04:16:43.860Z,11.80
2018-11-05T04:19:17.409Z,12.07
2018-11-05T04:21:45.320Z,12.57
2018-11-05T04:24:20.305Z,12.63
2018-11-05T04:26:47.864Z,11.83
2018-11-05T04:29:35.086Z,12.23
2018-11-05T04:32:02.696Z,12.10
2018-11-05T04:34:30.517Z,11.47
2018-11-05T04:36:58.442Z,11.33
2018-11-05T04:39:26.009Z,10.73
2018-11-05T04:41:53.505Z,11.30
2018-11-05T04:44:21.187Z,10.57
2018-11-05T04:46:48.766Z,12.20
2018-11-05T04:49:16.409Z,12.37
2018-11-05T04:51:45.009Z,11.57
2018-11-05T04:54:12.584Z,11.53
2018-11-05T04:56:40.147Z,11.97
2018-11-05T04:59:08.010Z,12.67
2018-11-05T05:01:35.724Z,10.93
2018-11-05T05:04:03.547Z,10.83
2018-11-05T05:06:31.737Z,10.87
2018-11-05T05:08:59.304Z,9.33
2018-11-05T05:11:27.373Z,9.73
2018-11-05T05:13:54.959Z,9.47
2018-11-05T05:16:22.581Z,10.23
2018-11-05T05:18:50.489Z,10.10
2018-11-05T05:21:18.039Z,10.80
2018-11-05T05:23:45.610Z,10.50
2018-11-05T05:26:13.898Z,11.13
2018-11-05T05:28:41.924Z,10.17
2018-11-05T05:31:09.501Z,10.97
2018-11-05T05:33:37.305Z,10.63
2018-11-05T05:36:05.232Z,10.27
2018-11-05T05:38:32.822Z,10.20
2018-11-05T05:41:00.878Z,9.70
2018-11-05T05:43:28.961Z,10.00
2018-11-05T05:45:56.578Z,10.10
2018-11-05T05:48:24.429Z,9.80
2018-11-05T05:50:52.013Z,9.97
2018-11-05T05:53:19.548Z,9.27
2018-11-05T05:55:47.324Z,9.60
2018-11-05T05:58:14.870Z,9.07
2018-11-05T06:00:42.454Z,8.67
2018-11-05T06:03:10.354Z,9.30
2018-11-05T06:05:37.913Z,8.83
2018-11-05T06:08:05.553Z,10.13
2018-11-05T06:10:33.360Z,9.43
2018-11-05T06:13:00.916Z,9.23
2018-11-05T06:15:28.438Z,9.30
2018-11-05T06:17:56.231Z,9.73
2018-11-05T06:20:23.849Z,9.70
2018-11-05T06:22:51.461Z,10.10
2018-11-05T06:25:19.338Z,9.17
2018-11-05T06:27:47.035Z,9.37
2018-11-05T06:30:17.318Z,8.63
2018-11-05T06:32:46.249Z,9.33
2018-11-05T06:35:14.014Z,9.53
2018-11-05T06:37:42.796Z,9.40
2018-11-05T06:40:15.375Z,9.33
2018-11-05T06:42:43.377Z,8.47
2018-11-05T06:45:19.157Z,8.70
2018-11-05T06:47:54.962Z,9.37
2018-11-05T06:50:23.996Z,8.30
2018-11-05T06:52:51.685Z,8.13
2018-11-05T06:55:19.352Z,8.73
2018-11-05T06:57:46.964Z,8.70
2018-11-05T07:00:21.524Z,8.63
2018-11-05T07:02:49.125Z,8.53
2018-11-05T07:05:16.777Z,8.03
2018-11-05T07:07:44.625Z,8.73
2018-11-05T07:10:13.262Z,8.53
2018-11-05T07:12:41.472Z,8.57
2018-11-05T07:15:11.209Z,8.63
2018-11-05T07:17:38.942Z,8.47
2018-11-05T07:20:09.900Z,8.90
2018-11-05T07:22:37.445Z,8.20
2018-11-05T07:25:06.825Z,8.23
2018-11-05T07:27:34.546Z,8.63
2018-11-05T07:30:02.370Z,9.00
2018-11-05T07:32:29.947Z,8.40
2018-11-05T07:34:57.853Z,8.97
2018-11-05T07:37:25.879Z,8.77
2018-11-05T07:39:53.423Z,8.40
2018-11-05T07:42:21.245Z,8.60
2018-11-05T07:44:48.848Z,8.10
2018-11-05T07:47:16.347Z,8.97
2018-11-05T07:49:44.150Z,8.37
2018-11-05T07:52:11.694Z,7.87
2018-11-05T07:54:39.239Z,7.90
2018-11-05T07:57:06.930Z,8.00
2018-11-05T07:59:34.551Z,8.00
2018-11-05T08:02:02.085Z,7.17
2018-11-05T08:04:29.846Z,7.37
2018-11-05T08:06:57.378Z,7.40
2018-11-05T08:09:24.954Z,8.27
2018-11-05T08:11:52.849Z,7.57
2018-11-05T08:14:20.455Z,7.43
2018-11-05T08:16:48.013Z,7.40
2018-11-05T08:19:15.769Z,7.80
2018-11-05T08:21:43.406Z,7.20
2018-11-05T08:24:11.680Z,7.20
2018-11-05T08:26:39.388Z,7.67
2018-11-05T08:29:06.920Z,8.10
2018-11-05T08:31:34.809Z,6.90
2018-11-05T08:34:02.618Z,7.13
2018-11-05T08:36:30.119Z,7.63
2018-11-05T08:38:58.017Z,7.80
2018-11-05T08:41:25.531Z,7.93
2018-11-05T08:43:53.130Z,7.67
2018-11-05T08:46:20.997Z,8.17
2018-11-05T08:48:48.576Z,7.73
2018-11-05T08:51:16.340Z,7.83
2018-11-05T08:53:44.010Z,7.23
2018-11-05T08:56:11.581Z,7.83
2018-11-05T08:58:39.085Z,7.73
2018-11-05T09:01:12.636Z,7.80
2018-11-05T09:03:40.182Z,7.17
2018-11-05T09:06:07.758Z,7.77
2018-11-05T09:08:35.856Z,8.00
2018-11-05T09:11:03.890Z,7.40
2018-11-05T09:13:31.058Z,8.20
2018-11-05T09:15:58.833Z,7.83
2018-11-05T09:18:26.406Z,8.00
2018-11-05T09:20:54.049Z,8.23
2018-11-05T09:23:21.759Z,7.10
2018-11-05T09:25:49.322Z,7.27
2018-11-05T09:28:16.835Z,7.63
2018-11-05T09:30:44.642Z,7.63
2018-11-05T09:33:12.960Z,7.07
2018-11-05T09:35:40.526Z,7.67
2018-11-05T09:38:08.258Z,7.73
2018-11-05T09:40:35.821Z,7.37
2018-11-05T09:43:03.702Z,8.27
2018-11-05T09:45:31.234Z,7.83
2018-11-05T09:47:59.085Z,8.03
2018-11-05T09:50:26.716Z,8.70
2018-11-05T09:52:54.231Z,6.90
2018-11-05T09:55:22.180Z,8.17
2018-11-05T09:57:49.683Z,7.27
2018-11-05T10:00:21.732Z,7.47
2018-11-05T10:02:55.193Z,7.20
2018-11-05T10:05:22.970Z,8.23
2018-11-05T10:07:50.512Z,7.30
2018-11-05T10:10:18.268Z,8.03
2018-11-05T10:12:45.846Z,7.50
2018-11-05T10:15:14.283Z,7.87
2018-11-05T10:17:41.899Z,8.07
2018-11-05T10:20:17.040Z,8.27
2018-11-05T10:22:45.061Z,7.13
2018-11-05T10:25:13.346Z,7.77
2018-11-05T10:27:41.037Z,7.97
2018-11-05T10:30:12.856Z,7.97
2018-11-05T10:32:40.785Z,7.60
2018-11-05T10:35:08.143Z,7.53
2018-11-05T10:37:35.821Z,8.73
2018-11-05T10:40:05.501Z,7.40
2018-11-05T10:42:33.057Z,7.47
2018-11-05T10:45:02.799Z,7.20
2018-11-05T10:47:30.318Z,7.87
2018-11-05T10:49:57.906Z,8.00
2018-11-05T10:52:25.770Z,7.13
2018-11-05T10:54:53.320Z,7.90
2018-11-05T10:57:20.840Z,8.10
2018-11-05T10:59:48.612Z,7.33
2018-11-05T11:02:21.840Z,6.80
2018-11-05T11:04:51.017Z,7.83
2018-11-05T11:07:18.552Z,7.47
2018-11-05T11:09:46.166Z,6.97
2018-11-05T11:12:13.913Z,6.73
2018-11-05T11:14:41.464Z,7.17
2018-11-05T11:17:09.124Z,6.40
2018-11-05T11:19:36.856Z,6.60
2018-11-05T11:22:04.480Z,6.77
2018-11-05T11:24:32.037Z,7.13
2018-11-05T11:26:59.747Z,6.77
2018-11-05T11:29:27.748Z,6.47
2018-11-05T11:31:55.318Z,7.00
2018-11-05T11:34:22.561Z,7.23
2018-11-05T11:36:50.154Z,6.33
2018-11-05T11:39:17.711Z,7.03
2018-11-05T11:41:45.281Z,7.13
2018-11-05T11:44:13.202Z,6.93
2018-11-05T11:46:40.817Z,6.73
2018-11-05T11:49:09.525Z,6.23
2018-11-05T11:51:37.289Z,6.90
2018-11-05T11:54:05.177Z,6.47
2018-11-05T11:56:32.750Z,6.63
2018-11-05T11:59:00.426Z,7.03
2018-11-05T12:01:28.209Z,7.37
2018-11-05T12:03:55.788Z,7.10
2018-11-05T12:06:23.406Z,6.80
2018-11-05T12:08:51.261Z,7.37
2018-11-05T12:11:18.807Z,7.03
2018-11-05T12:13:46.676Z,6.67
2018-11-05T12:16:14.157Z,7.43
2018-11-05T12:18:42.036Z,8.30
2018-11-05T12:21:09.586Z,8.10
2018-11-05T12:23:37.177Z,8.07
2018-11-05T12:26:04.987Z,7.87
2018-11-05T12:28:32.821Z,7.23
2018-11-05T12:31:00.387Z,7.77
2018-11-05T12:33:27.693Z,8.00
2018-11-05T12:35:55.543Z,8.60
2018-11-05T12:38:23.075Z,7.83
2018-11-05T12:40:50.648Z,8.30
2018-11-05T12:43:18.596Z,8.43
2018-11-05T12:45:46.121Z,8.03
2018-11-05T12:48:13.647Z,7.77
2018-11-05T12:50:42.189Z,8.00
2018-11-05T12:53:09.692Z,8.17
2018-11-05T12:55:37.296Z,8.53
2018-11-05T12:58:08.937Z,8.33
2018-11-05T13:00:36.541Z,7.93
2018-11-05T13:03:14.371Z,7.13
2018-11-05T13:05:49.332Z,8.27
2018-11-05T13:08:17.284Z,7.50
2018-11-05T13:10:44.825Z,7.97
2018-11-05T13:13:12.362Z,8.20
2018-11-05T13:15:40.106Z,7.37
2018-11-05T13:18:07.677Z,7.60
2018-11-05T13:20:35.405Z,8.07
2018-11-05T13:23:03.205Z,8.10
2018-11-05T13:25:31.069Z,7.70
2018-11-05T13:27:58.631Z,7.57
2018-11-05T13:30:26.185Z,7.77
2018-11-05T13:32:54.214Z,7.80
2018-11-05T13:35:21.972Z,7.50
2018-11-05T13:37:49.894Z,8.00
2018-11-05T13:40:19.630Z,7.57
2018-11-05T13:42:47.640Z,8.73
2018-11-05T13:45:15.724Z,8.10
2018-11-05T13:47:44.016Z,7.87
2018-11-05T13:50:11.824Z,8.00
2018-11-05T13:52:39.596Z,8.30
2018-11-05T13:55:09.786Z,8.30
2018-11-05T13:57:37.464Z,6.87
2018-11-05T14:00:07.947Z,7.50
2018-11-05T14:02:35.886Z,7.93
2018-11-05T14:05:03.847Z,7.70
2018-11-05T14:07:31.472Z,7.30
2018-11-05T14:09:59.314Z,7.80
2018-11-05T14:12:27.675Z,8.40
2018-11-05T14:17:53.238Z,7.67
2018-11-05T14:20:59.666Z,7.47
2018-11-05T14:23:39.431Z,6.97
2018-11-05T14:26:37.988Z,6.73
2018-11-05T14:29:26.554Z,6.90
2018-11-05T14:31:57.871Z,7.37
2018-11-05T14:35:09.901Z,7.43
2018-11-05T14:37:38.553Z,7.00
2018-11-05T14:40:09.898Z,7.07
2018-11-05T14:42:37.568Z,7.23
2018-11-05T14:45:11.449Z,7.27
2018-11-05T14:48:11.814Z,7.30
2018-11-05T14:50:39.736Z,6.53
2018-11-05T14:53:07.642Z,6.47
2018-11-05T14:55:35.270Z,6.83
2018-11-05T14:58:10.454Z,7.43
2018-11-05T15:00:38.023Z,6.77
2018-11-05T15:05:55.908Z,6.73
2018-11-05T15:11:38.208Z,6.57
2018-11-05T15:16:43.408Z,6.93
2018-11-05T15:19:11.324Z,6.40
2018-11-05T15:24:13.345Z,6.10
2018-11-05T15:26:41.323Z,6.47
2018-11-05T15:31:36.122Z,6.40
2018-11-05T15:34:03.966Z,6.60
2018-11-05T15:36:31.845Z,6.73
2018-11-05T15:39:00.983Z,5.97
2018-11-05T15:41:28.560Z,7.03
2018-11-05T15:43:56.215Z,6.93
2018-11-05T15:46:23.880Z,6.30
2018-11-05T15:48:51.587Z,6.77
2018-11-05T15:51:19.658Z,6.07
2018-11-05T15:53:46.967Z,6.63
2018-11-05T15:56:14.930Z,6.77
2018-11-05T15:58:42.464Z,6.40
2018-11-05T16:01:10.036Z,6.03
2018-11-05T16:03:37.698Z,6.17
2018-11-05T16:06:05.252Z,6.07
2018-11-05T16:08:33.170Z,6.07
2018-11-05T16:11:00.996Z,6.23
2018-11-05T16:13:28.750Z,6.17
2018-11-05T16:16:03.495Z,6.23
2018-11-05T16:18:31.234Z,6.37
2018-11-05T16:20:58.871Z,6.73
2018-11-05T16:25:54.855Z,6.50
2018-11-05T16:28:22.282Z,6.93
2018-11-05T16:33:16.927Z,6.40
2018-11-05T16:35:44.520Z,6.23
2018-11-05T16:40:39.377Z,6.47
2018-11-05T16:43:08.121Z,6.17
2018-11-05T16:45:36.787Z,6.63
2018-11-05T16:48:04.570Z,6.63
2018-11-05T16:50:32.325Z,6.20
2018-11-05T16:55:27.474Z,6.73
2018-11-05T16:57:55.564Z,6.47
2018-11-05T17:00:23.107Z,6.60
2018-11-05T17:02:50.813Z,6.83
2018-11-05T17:07:45.891Z,6.43
2018-11-05T17:10:14.092Z,6.10
2018-11-05T17:12:42.150Z,6.10
2018-11-05T17:15:11.742Z,6.00
2018-11-05T17:17:39.856Z,6.60
2018-11-05T17:20:10.237Z,6.40
2018-11-05T17:22:38.517Z,6.67
2018-11-05T17:25:06.677Z,6.23
2018-11-05T17:27:34.573Z,7.30
2018-11-05T17:32:29.645Z,6.73
2018-11-05T17:34:57.223Z,6.60
2018-11-05T17:39:52.043Z,7.23
2018-11-05T17:42:20.800Z,6.23
2018-11-05T17:44:48.460Z,7.00
2018-11-05T17:47:16.110Z,6.77
2018-11-05T17:49:44.334Z,6.73
2018-11-05T17:52:11.976Z,6.67
2018-11-05T17:54:40.298Z,7.57
2018-11-05T17:59:35.855Z,6.97
2018-11-05T18:02:05.069Z,6.53
2018-11-05T18:04:34.337Z,6.93
2018-11-05T18:07:03.713Z,6.23
2018-11-05T18:09:32.155Z,7.13
2018-11-05T18:11:59.636Z,6.50
2018-11-05T18:16:55.392Z,6.20
2018-11-05T18:19:23.076Z,5.93
2018-11-05T18:21:51.164Z,6.20
2018-11-05T18:24:19.010Z,5.80
2018-11-05T18:26:46.533Z,6.43
2018-11-05T18:29:14.751Z,6.87
2018-11-05T18:31:42.679Z,6.93
2018-11-05T18:34:09.848Z,6.63
2018-11-05T18:36:37.679Z,6.10
2018-11-05T18:39:08.387Z,7.03
2018-11-05T18:41:37.038Z,6.60
2018-11-05T18:46:32.167Z,6.70
2018-11-05T18:48:59.740Z,6.40
2018-11-05T18:51:27.898Z,6.77
2018-11-05T18:53:55.548Z,6.87
2018-11-05T18:56:23.274Z,6.77
2018-11-05T19:03:52.672Z,6.40
2018-11-05T19:06:24.402Z,6.50
2018-11-05T19:11:44.352Z,6.17
2018-11-05T19:14:46.138Z,7.03
2018-11-05T19:17:25.861Z,6.50
2018-11-05T19:20:31.989Z,6.83
2018-11-05T19:23:16.770Z,6.20
2018-11-05T19:25:44.336Z,7.10
2018-11-05T19:28:12.362Z,6.20
2018-11-05T19:30:39.982Z,6.63
2018-11-05T19:33:08.574Z,6.20
2018-11-05T19:38:04.602Z,7.03
2018-11-05T19:40:32.240Z,6.73
2018-11-05T19:43:00.143Z,7.17
2018-11-05T19:45:27.677Z,5.73
2018-11-05T19:47:55.262Z,6.40
2018-11-05T19:52:51.853Z,6.30
2018-11-05T19:55:19.866Z,6.23
2018-11-05T20:00:21.541Z,6.33
2018-11-05T20:05:17.242Z,6.17
2018-11-05T20:07:45.307Z,6.43
2018-11-05T20:12:42.071Z,6.90
2018-11-05T20:15:10.517Z,6.63
2018-11-05T20:17:39.221Z,6.83
2018-11-05T20:20:09.030Z,6.67
2018-11-05T20:25:06.236Z,7.07
2018-11-05T20:27:34.065Z,6.87
2018-11-05T20:32:30.300Z,7.10
2018-11-05T20:34:57.789Z,6.27
2018-11-05T20:39:52.557Z,7.23
2018-11-05T20:42:20.122Z,7.00
2018-11-05T20:44:47.872Z,6.87
2018-11-05T20:47:15.455Z,7.07
2018-11-05T20:49:43.079Z,6.97
2018-11-05T20:57:06.643Z,6.53
2018-11-05T20:59:34.996Z,7.03
2018-11-05T21:02:02.896Z,6.37
2018-11-05T21:04:30.583Z,7.13
2018-11-05T21:09:25.508Z,7.30
2018-11-05T21:11:54.023Z,7.60
2018-11-05T21:14:21.975Z,7.23
2018-11-05T21:16:49.572Z,7.27
2018-11-05T21:19:17.176Z,7.00
2018-11-05T21:24:12.172Z,7.23
2018-11-05T21:26:39.838Z,7.33
2018-11-05T21:31:34.660Z,7.53
2018-11-05T21:34:05.009Z,7.67
2018-11-05T21:39:00.456Z,8.57
2018-11-05T21:41:28.054Z,8.13
2018-11-05T21:46:23.212Z,7.03
2018-11-05T21:48:50.786Z,6.23
2018-11-05T21:51:18.819Z,7.40
2018-11-05T21:53:46.599Z,7.37
2018-11-05T21:58:42.941Z,7.70
2018-11-05T22:01:10.630Z,7.40
2018-11-05T22:03:38.159Z,7.30
2018-11-05T22:06:06.644Z,7.67
2018-11-05T22:08:34.219Z,7.43
2018-11-05T22:11:01.770Z,7.40
2018-11-05T22:15:56.680Z,7.17
2018-11-05T22:18:24.273Z,7.50
2018-11-05T22:23:19.164Z,8.10
2018-11-05T22:25:46.672Z,8.13
2018-11-05T22:28:14.566Z,8.57
2018-11-05T22:30:42.118Z,8.53
2018-11-05T22:33:09.333Z,8.23
2018-11-05T22:38:04.847Z,7.57
2018-11-05T22:40:32.431Z,8.60
2018-11-05T22:45:28.341Z,8.10
2018-11-05T22:47:55.921Z,8.17
2018-11-05T22:52:50.890Z,8.43
2018-11-05T22:55:18.460Z,8.63
2018-11-05T23:00:21.010Z,8.17
2018-11-05T23:02:54.556Z,8.57
2018-11-05T23:05:22.204Z,8.50
2018-11-05T23:07:50.726Z,8.33
2018-11-05T23:10:20.353Z,8.37
2018-11-05T23:12:48.002Z,8.20
2018-11-05T23:15:15.874Z,8.93
2018-11-05T23:17:43.770Z,8.87
2018-11-05T23:20:11.439Z,8.97
2018-11-05T23:22:39.799Z,8.50
2018-11-05T23:25:07.581Z,8.30
2018-11-05T23:27:35.342Z,9.10
2018-11-05T23:30:03.256Z,9.30
2018-11-05T23:37:25.225Z,9.93
2018-11-05T23:39:52.823Z,8.93
2018-11-05T23:44:47.713Z,9.10
2018-11-05T23:47:15.588Z,8.90
2018-11-05T23:52:10.607Z,8.97
2018-11-05T23:54:38.095Z,8.53
2018-11-05T23:59:32.969Z,8.63
